sensor_id;sensor_type;location;lat;lon;timestamp;P1;durP1;ratioP1;P2;durP2;ratioP2
71759;SDS011;59919;48.112;16.280;2023-05-07T00:00:38;0.93;;;0.70;;
71759;SDS011;59919;48.112;16.280;2023-05-07T00:03:13;0.80;;;0.80;;
71759;SDS011;59919;48.112;16.280;2023-05-07T00:05:46;0.55;;;0.50;;
71759;SDS011;59919;48.112;16.280;2023-05-07T00:08:18;1.05;;;0.50;;
71759;SDS011;59919;48.112;16.280;2023-05-07T00:10:53;0.80;;;0.70;;
71759;SDS011;59919;48.112;16.280;2023-05-07T00:13:30;0.70;;;0.60;;
71759;SDS011;59919;48.112;16.280;2023-05-07T00:16:05;0.50;;;0.50;;
71759;SDS011;59919;48.112;16.280;2023-05-07T00:18:38;0.85;;;0.60;;
71759;SDS011;59919;48.112;16.280;2023-05-07T00:21:09;0.40;;;0.40;;
71759;SDS011;59919;48.112;16.280;2023-05-07T00:23:40;0.82;;;0.75;;
71759;SDS011;59919;48.112;16.280;2023-05-07T00:26:13;0.68;;;0.60;;
71759;SDS011;59919;48.112;16.280;2023-05-07T00:28:44;0.85;;;0.65;;
71759;SDS011;59919;48.112;16.280;2023-05-07T00:31:16;1.20;;;0.70;;
71759;SDS011;59919;48.112;16.280;2023-05-07T00:33:47;0.98;;;0.70;;
71759;SDS011;59919;48.112;16.280;2023-05-07T00:36:23;0.57;;;0.57;;
71759;SDS011;59919;48.112;16.280;2023-05-07T00:38:54;0.60;;;0.60;;
71759;SDS011;59919;48.112;16.280;2023-05-07T00:41:26;0.80;;;0.60;;
71759;SDS011;59919;48.112;16.280;2023-05-07T00:43:57;0.73;;;0.68;;
71759;SDS011;59919;48.112;16.280;2023-05-07T00:46:32;0.60;;;0.57;;
71759;SDS011;59919;48.112;16.280;2023-05-07T00:49:09;0.75;;;0.68;;
71759;SDS011;59919;48.112;16.280;2023-05-07T00:51:45;0.47;;;0.47;;
71759;SDS011;59919;48.112;16.280;2023-05-07T00:54:17;0.63;;;0.57;;
71759;SDS011;59919;48.112;16.280;2023-05-07T00:56:48;0.60;;;0.57;;
71759;SDS011;59919;48.112;16.280;2023-05-07T00:59:20;0.88;;;0.60;;
71759;SDS011;59919;48.112;16.280;2023-05-07T01:01:54;1.00;;;0.70;;
71759;SDS011;59919;48.112;16.280;2023-05-07T01:04:28;0.90;;;0.80;;
71759;SDS011;59919;48.112;16.280;2023-05-07T01:06:59;0.40;;;0.40;;
71759;SDS011;59919;48.112;16.280;2023-05-07T01:09:35;0.80;;;0.70;;
71759;SDS011;59919;48.112;16.280;2023-05-07T01:12:12;0.70;;;0.60;;
71759;SDS011;59919;48.112;16.280;2023-05-07T01:14:43;0.50;;;0.50;;
71759;SDS011;59919;48.112;16.280;2023-05-07T01:17:15;0.57;;;0.45;;
71759;SDS011;59919;48.112;16.280;2023-05-07T01:19:46;0.85;;;0.60;;
71759;SDS011;59919;48.112;16.280;2023-05-07T01:22:31;0.80;;;0.68;;
71759;SDS011;59919;48.112;16.280;2023-05-07T01:25:04;1.17;;;0.55;;
71759;SDS011;59919;48.112;16.280;2023-05-07T01:27:41;0.70;;;0.70;;
71759;SDS011;59919;48.112;16.280;2023-05-07T01:30:16;0.80;;;0.73;;
71759;SDS011;59919;48.112;16.280;2023-05-07T01:35:39;0.50;;;0.50;;
71759;SDS011;59919;48.112;16.280;2023-05-07T01:38:16;0.70;;;0.70;;
71759;SDS011;59919;48.112;16.280;2023-05-07T01:40:52;0.40;;;0.40;;
71759;SDS011;59919;48.112;16.280;2023-05-07T01:43:24;0.60;;;0.60;;
71759;SDS011;59919;48.112;16.280;2023-05-07T01:45:56;0.65;;;0.65;;
71759;SDS011;59919;48.112;16.280;2023-05-07T01:48:30;0.77;;;0.68;;
71759;SDS011;59919;48.112;16.280;2023-05-07T01:51:01;0.60;;;0.60;;
71759;SDS011;59919;48.112;16.280;2023-05-07T01:53:40;0.70;;;0.60;;
71759;SDS011;59919;48.112;16.280;2023-05-07T01:56:12;0.82;;;0.60;;
71759;SDS011;59919;48.112;16.280;2023-05-07T01:58:53;0.65;;;0.63;;
71759;SDS011;59919;48.112;16.280;2023-05-07T02:01:31;0.70;;;0.57;;
71759;SDS011;59919;48.112;16.280;2023-05-07T02:04:07;0.55;;;0.55;;
71759;SDS011;59919;48.112;16.280;2023-05-07T02:06:38;0.60;;;0.57;;
71759;SDS011;59919;48.112;16.280;2023-05-07T02:09:09;0.90;;;0.60;;
71759;SDS011;59919;48.112;16.280;2023-05-07T02:11:43;0.60;;;0.60;;
71759;SDS011;59919;48.112;16.280;2023-05-07T02:14:17;0.82;;;0.60;;
71759;SDS011;59919;48.112;16.280;2023-05-07T02:16:48;0.80;;;0.60;;
71759;SDS011;59919;48.112;16.280;2023-05-07T02:19:23;0.80;;;0.60;;
71759;SDS011;59919;48.112;16.280;2023-05-07T02:21:54;0.60;;;0.60;;
71759;SDS011;59919;48.112;16.280;2023-05-07T02:24:25;0.63;;;0.60;;
71759;SDS011;59919;48.112;16.280;2023-05-07T02:26:59;0.70;;;0.63;;
71759;SDS011;59919;48.112;16.280;2023-05-07T02:29:30;0.80;;;0.80;;
71759;SDS011;59919;48.112;16.280;2023-05-07T02:32:01;0.50;;;0.45;;
71759;SDS011;59919;48.112;16.280;2023-05-07T02:34:33;0.73;;;0.52;;
71759;SDS011;59919;48.112;16.280;2023-05-07T02:37:04;0.77;;;0.70;;
71759;SDS011;59919;48.112;16.280;2023-05-07T02:39:36;0.60;;;0.60;;
71759;SDS011;59919;48.112;16.280;2023-05-07T02:42:07;0.60;;;0.60;;
71759;SDS011;59919;48.112;16.280;2023-05-07T02:44:38;0.52;;;0.50;;
71759;SDS011;59919;48.112;16.280;2023-05-07T02:47:19;0.70;;;0.70;;
71759;SDS011;59919;48.112;16.280;2023-05-07T02:49:53;0.73;;;0.60;;
71759;SDS011;59919;48.112;16.280;2023-05-07T02:52:25;0.65;;;0.65;;
71759;SDS011;59919;48.112;16.280;2023-05-07T02:55:01;0.93;;;0.70;;
71759;SDS011;59919;48.112;16.280;2023-05-07T02:57:35;0.63;;;0.60;;
71759;SDS011;59919;48.112;16.280;2023-05-07T03:00:16;0.63;;;0.52;;
71759;SDS011;59919;48.112;16.280;2023-05-07T03:02:48;0.80;;;0.80;;
71759;SDS011;59919;48.112;16.280;2023-05-07T03:05:19;0.80;;;0.55;;
71759;SDS011;59919;48.112;16.280;2023-05-07T03:07:51;0.70;;;0.68;;
71759;SDS011;59919;48.112;16.280;2023-05-07T03:10:22;1.00;;;0.68;;
71759;SDS011;59919;48.112;16.280;2023-05-07T03:12:53;0.65;;;0.60;;
71759;SDS011;59919;48.112;16.280;2023-05-07T03:15:26;0.70;;;0.68;;
71759;SDS011;59919;48.112;16.280;2023-05-07T03:17:58;0.80;;;0.80;;
71759;SDS011;59919;48.112;16.280;2023-05-07T03:20:29;0.73;;;0.70;;
71759;SDS011;59919;48.112;16.280;2023-05-07T03:23:03;0.95;;;0.80;;
71759;SDS011;59919;48.112;16.280;2023-05-07T03:25:40;1.15;;;0.70;;
71759;SDS011;59919;48.112;16.280;2023-05-07T03:28:13;0.70;;;0.70;;
71759;SDS011;59919;48.112;16.280;2023-05-07T03:30:49;0.70;;;0.60;;
71759;SDS011;59919;48.112;16.280;2023-05-07T03:33:22;0.80;;;0.70;;
71759;SDS011;59919;48.112;16.280;2023-05-07T03:35:54;1.00;;;0.90;;
71759;SDS011;59919;48.112;16.280;2023-05-07T03:38:28;1.42;;;0.70;;
71759;SDS011;59919;48.112;16.280;2023-05-07T03:40:59;0.80;;;0.80;;
71759;SDS011;59919;48.112;16.280;2023-05-07T03:43:33;0.60;;;0.60;;
71759;SDS011;59919;48.112;16.280;2023-05-07T03:46:09;0.80;;;0.80;;
71759;SDS011;59919;48.112;16.280;2023-05-07T03:48:43;1.27;;;1.00;;
71759;SDS011;59919;48.112;16.280;2023-05-07T03:51:14;0.90;;;0.85;;
71759;SDS011;59919;48.112;16.280;2023-05-07T03:53:46;0.70;;;0.70;;
71759;SDS011;59919;48.112;16.280;2023-05-07T03:56:19;0.73;;;0.73;;
71759;SDS011;59919;48.112;16.280;2023-05-07T03:58:53;0.90;;;0.90;;
71759;SDS011;59919;48.112;16.280;2023-05-07T04:01:25;0.75;;;0.75;;
71759;SDS011;59919;48.112;16.280;2023-05-07T04:03:56;1.02;;;0.93;;
71759;SDS011;59919;48.112;16.280;2023-05-07T04:06:27;0.90;;;0.90;;
71759;SDS011;59919;48.112;16.280;2023-05-07T04:09:02;1.40;;;1.30;;
71759;SDS011;59919;48.112;16.280;2023-05-07T04:11:35;1.83;;;1.08;;
71759;SDS011;59919;48.112;16.280;2023-05-07T04:14:10;1.77;;;1.27;;
71759;SDS011;59919;48.112;16.280;2023-05-07T04:16:48;1.10;;;1.00;;
71759;SDS011;59919;48.112;16.280;2023-05-07T04:19:19;1.30;;;1.10;;
71759;SDS011;59919;48.112;16.280;2023-05-07T04:21:53;1.10;;;1.00;;
71759;SDS011;59919;48.112;16.280;2023-05-07T04:24:24;1.10;;;1.00;;
71759;SDS011;59919;48.112;16.280;2023-05-07T04:26:55;1.33;;;1.23;;
71759;SDS011;59919;48.112;16.280;2023-05-07T04:29:27;1.20;;;1.10;;
71759;SDS011;59919;48.112;16.280;2023-05-07T04:32:00;1.42;;;1.15;;
71759;SDS011;59919;48.112;16.280;2023-05-07T04:34:34;1.98;;;1.30;;
71759;SDS011;59919;48.112;16.280;2023-05-07T04:37:08;1.70;;;1.40;;
71759;SDS011;59919;48.112;16.280;2023-05-07T04:39:42;1.33;;;1.23;;
71759;SDS011;59919;48.112;16.280;2023-05-07T04:42:16;1.42;;;1.15;;
71759;SDS011;59919;48.112;16.280;2023-05-07T04:44:52;2.58;;;1.33;;
71759;SDS011;59919;48.112;16.280;2023-05-07T04:47:24;1.92;;;1.33;;
71759;SDS011;59919;48.112;16.280;2023-05-07T04:49:55;1.38;;;1.27;;
71759;SDS011;59919;48.112;16.280;2023-05-07T04:52:33;1.67;;;1.30;;
71759;SDS011;59919;48.112;16.280;2023-05-07T04:55:07;1.57;;;1.47;;
71759;SDS011;59919;48.112;16.280;2023-05-07T04:57:39;1.75;;;1.58;;
71759;SDS011;59919;48.112;16.280;2023-05-07T05:00:12;2.05;;;1.50;;
71759;SDS011;59919;48.112;16.280;2023-05-07T05:02:50;1.77;;;1.63;;
71759;SDS011;59919;48.112;16.280;2023-05-07T05:05:23;1.75;;;1.52;;
71759;SDS011;59919;48.112;16.280;2023-05-07T05:07:54;1.92;;;1.73;;
71759;SDS011;59919;48.112;16.280;2023-05-07T05:10:25;1.60;;;1.50;;
71759;SDS011;59919;48.112;16.280;2023-05-07T05:12:57;1.90;;;1.58;;
71759;SDS011;59919;48.112;16.280;2023-05-07T05:15:28;2.22;;;1.70;;
71759;SDS011;59919;48.112;16.280;2023-05-07T05:18:04;2.15;;;1.70;;
71759;SDS011;59919;48.112;16.280;2023-05-07T05:20:37;1.92;;;1.42;;
71759;SDS011;59919;48.112;16.280;2023-05-07T05:23:10;1.95;;;1.50;;
71759;SDS011;59919;48.112;16.280;2023-05-07T05:25:48;2.13;;;1.92;;
71759;SDS011;59919;48.112;16.280;2023-05-07T05:28:22;1.48;;;1.38;;
71759;SDS011;59919;48.112;16.280;2023-05-07T05:30:53;2.30;;;1.65;;
71759;SDS011;59919;48.112;16.280;2023-05-07T05:33:24;3.10;;;1.90;;
71759;SDS011;59919;48.112;16.280;2023-05-07T05:35:55;1.90;;;1.70;;
71759;SDS011;59919;48.112;16.280;2023-05-07T05:38:27;2.33;;;2.13;;
71759;SDS011;59919;48.112;16.280;2023-05-07T05:40:58;2.28;;;2.00;;
71759;SDS011;59919;48.112;16.280;2023-05-07T05:43:29;2.05;;;1.80;;
71759;SDS011;59919;48.112;16.280;2023-05-07T05:46:00;3.30;;;2.10;;
71759;SDS011;59919;48.112;16.280;2023-05-07T05:48:38;2.28;;;2.08;;
71759;SDS011;59919;48.112;16.280;2023-05-07T05:51:09;2.53;;;2.20;;
71759;SDS011;59919;48.112;16.280;2023-05-07T05:53:40;2.45;;;2.25;;
71759;SDS011;59919;48.112;16.280;2023-05-07T05:56:11;2.25;;;2.05;;
71759;SDS011;59919;48.112;16.280;2023-05-07T05:58:42;2.45;;;2.08;;
71759;SDS011;59919;48.112;16.280;2023-05-07T06:01:17;2.30;;;2.10;;
71759;SDS011;59919;48.112;16.280;2023-05-07T06:03:51;3.10;;;2.40;;
71759;SDS011;59919;48.112;16.280;2023-05-07T06:06:23;2.72;;;2.30;;
71759;SDS011;59919;48.112;16.280;2023-05-07T06:08:59;2.65;;;2.42;;
71759;SDS011;59919;48.112;16.280;2023-05-07T06:11:40;2.60;;;2.40;;
71759;SDS011;59919;48.112;16.280;2023-05-07T06:14:12;3.25;;;2.60;;
71759;SDS011;59919;48.112;16.280;2023-05-07T06:16:43;2.53;;;2.33;;
71759;SDS011;59919;48.112;16.280;2023-05-07T06:19:15;3.30;;;2.60;;
71759;SDS011;59919;48.112;16.280;2023-05-07T06:21:48;2.47;;;2.28;;
71759;SDS011;59919;48.112;16.280;2023-05-07T06:24:26;3.45;;;2.60;;
71759;SDS011;59919;48.112;16.280;2023-05-07T06:26:57;3.03;;;2.60;;
71759;SDS011;59919;48.112;16.280;2023-05-07T06:29:31;2.97;;;2.67;;
71759;SDS011;59919;48.112;16.280;2023-05-07T06:32:07;2.95;;;2.53;;
71759;SDS011;59919;48.112;16.280;2023-05-07T06:34:41;3.38;;;2.85;;
71759;SDS011;59919;48.112;16.280;2023-05-07T06:37:12;3.53;;;2.95;;
71759;SDS011;59919;48.112;16.280;2023-05-07T06:39:44;3.53;;;2.80;;
71759;SDS011;59919;48.112;16.280;2023-05-07T06:42:17;3.85;;;3.20;;
71759;SDS011;59919;48.112;16.280;2023-05-07T06:44:48;3.97;;;2.83;;
71759;SDS011;59919;48.112;16.280;2023-05-07T06:47:22;4.00;;;3.47;;
71759;SDS011;59919;48.112;16.280;2023-05-07T06:49:53;3.50;;;2.97;;
71759;SDS011;59919;48.112;16.280;2023-05-07T06:52:27;3.30;;;3.00;;
71759;SDS011;59919;48.112;16.280;2023-05-07T06:54:59;4.00;;;3.20;;
71759;SDS011;59919;48.112;16.280;2023-05-07T06:57:32;3.97;;;3.42;;
71759;SDS011;59919;48.112;16.280;2023-05-07T07:00:04;3.95;;;3.22;;
71759;SDS011;59919;48.112;16.280;2023-05-07T07:02:37;4.78;;;3.65;;
71759;SDS011;59919;48.112;16.280;2023-05-07T07:05:08;3.67;;;3.38;;
71759;SDS011;59919;48.112;16.280;2023-05-07T07:07:41;4.43;;;3.65;;
71759;SDS011;59919;48.112;16.280;2023-05-07T07:10:15;3.90;;;3.38;;
71759;SDS011;59919;48.112;16.280;2023-05-07T07:12:50;3.72;;;3.42;;
71759;SDS011;59919;48.112;16.280;2023-05-07T07:15:30;3.95;;;3.58;;
71759;SDS011;59919;48.112;16.280;2023-05-07T07:18:01;4.38;;;3.80;;
71759;SDS011;59919;48.112;16.280;2023-05-07T07:20:32;4.30;;;3.70;;
71759;SDS011;59919;48.112;16.280;2023-05-07T07:23:06;4.97;;;3.72;;
71759;SDS011;59919;48.112;16.280;2023-05-07T07:25:37;4.07;;;3.67;;
71759;SDS011;59919;48.112;16.280;2023-05-07T07:28:08;2.30;;;1.77;;
71759;SDS011;59919;48.112;16.280;2023-05-07T07:30:41;2.05;;;1.70;;
71759;SDS011;59919;48.112;16.280;2023-05-07T07:33:15;1.98;;;1.75;;
71759;SDS011;59919;48.112;16.280;2023-05-07T07:35:49;2.20;;;1.85;;
71759;SDS011;59919;48.112;16.280;2023-05-07T07:38:20;2.22;;;1.88;;
71759;SDS011;59919;48.112;16.280;2023-05-07T07:40:52;2.20;;;2.00;;
71759;SDS011;59919;48.112;16.280;2023-05-07T07:43:23;2.10;;;1.75;;
71759;SDS011;59919;48.112;16.280;2023-05-07T07:45:54;2.65;;;1.95;;
71759;SDS011;59919;48.112;16.280;2023-05-07T07:48:25;2.65;;;2.25;;
71759;SDS011;59919;48.112;16.280;2023-05-07T07:51:07;2.92;;;2.15;;
71759;SDS011;59919;48.112;16.280;2023-05-07T07:53:38;2.15;;;1.90;;
71759;SDS011;59919;48.112;16.280;2023-05-07T07:56:09;2.20;;;2.00;;
71759;SDS011;59919;48.112;16.280;2023-05-07T07:58:43;2.30;;;2.10;;
71759;SDS011;59919;48.112;16.280;2023-05-07T08:01:17;2.85;;;1.88;;
71759;SDS011;59919;48.112;16.280;2023-05-07T08:03:48;2.60;;;2.17;;
71759;SDS011;59919;48.112;16.280;2023-05-07T08:06:20;3.13;;;2.30;;
71759;SDS011;59919;48.112;16.280;2023-05-07T08:08:51;2.45;;;2.25;;
71759;SDS011;59919;48.112;16.280;2023-05-07T08:11:25;2.90;;;2.55;;
71759;SDS011;59919;48.112;16.280;2023-05-07T08:13:56;3.88;;;2.70;;
71759;SDS011;59919;48.112;16.280;2023-05-07T08:16:30;3.20;;;2.88;;
71759;SDS011;59919;48.112;16.280;2023-05-07T08:19:04;2.50;;;2.30;;
71759;SDS011;59919;48.112;16.280;2023-05-07T08:21:38;3.22;;;2.50;;
71759;SDS011;59919;48.112;16.280;2023-05-07T08:24:10;4.38;;;2.95;;
71759;SDS011;59919;48.112;16.280;2023-05-07T08:26:43;2.95;;;2.45;;
71759;SDS011;59919;48.112;16.280;2023-05-07T08:29:17;2.85;;;2.60;;
71759;SDS011;59919;48.112;16.280;2023-05-07T08:31:48;2.22;;;2.00;;
71759;SDS011;59919;48.112;16.280;2023-05-07T08:34:19;2.15;;;1.90;;
71759;SDS011;59919;48.112;16.280;2023-05-07T08:36:50;2.47;;;2.28;;
71759;SDS011;59919;48.112;16.280;2023-05-07T08:39:21;2.22;;;2.03;;
71759;SDS011;59919;48.112;16.280;2023-05-07T08:41:55;3.92;;;2.08;;
71759;SDS011;59919;48.112;16.280;2023-05-07T08:44:27;2.38;;;2.05;;
71759;SDS011;59919;48.112;16.280;2023-05-07T08:47:01;2.92;;;2.33;;
71759;SDS011;59919;48.112;16.280;2023-05-07T08:49:37;2.78;;;2.45;;
71759;SDS011;59919;48.112;16.280;2023-05-07T08:52:08;3.65;;;2.55;;
71759;SDS011;59919;48.112;16.280;2023-05-07T08:54:42;3.17;;;2.40;;
71759;SDS011;59919;48.112;16.280;2023-05-07T08:57:17;3.35;;;2.60;;
71759;SDS011;59919;48.112;16.280;2023-05-07T08:59:52;2.90;;;2.45;;
71759;SDS011;59919;48.112;16.280;2023-05-07T09:02:24;3.03;;;2.30;;
71759;SDS011;59919;48.112;16.280;2023-05-07T09:04:55;3.67;;;2.60;;
71759;SDS011;59919;48.112;16.280;2023-05-07T09:07:26;3.97;;;2.65;;
71759;SDS011;59919;48.112;16.280;2023-05-07T09:09:57;3.60;;;2.28;;
71759;SDS011;59919;48.112;16.280;2023-05-07T09:12:35;3.15;;;2.70;;
71759;SDS011;59919;48.112;16.280;2023-05-07T09:15:09;2.63;;;2.20;;
71759;SDS011;59919;48.112;16.280;2023-05-07T09:20:15;2.97;;;2.28;;
71759;SDS011;59919;48.112;16.280;2023-05-07T09:22:47;3.15;;;2.38;;
71759;SDS011;59919;48.112;16.280;2023-05-07T09:25:29;3.03;;;2.38;;
71759;SDS011;59919;48.112;16.280;2023-05-07T09:28:02;2.85;;;2.35;;
71759;SDS011;59919;48.112;16.280;2023-05-07T09:30:40;4.15;;;2.60;;
71759;SDS011;59919;48.112;16.280;2023-05-07T09:33:16;2.45;;;2.25;;
71759;SDS011;59919;48.112;16.280;2023-05-07T09:35:50;3.88;;;2.47;;
71759;SDS011;59919;48.112;16.280;2023-05-07T09:38:24;3.78;;;2.63;;
71759;SDS011;59919;48.112;16.280;2023-05-07T09:41:06;4.35;;;2.67;;
71759;SDS011;59919;48.112;16.280;2023-05-07T09:43:44;4.18;;;2.60;;
71759;SDS011;59919;48.112;16.280;2023-05-07T09:46:15;4.63;;;2.70;;
71759;SDS011;59919;48.112;16.280;2023-05-07T09:48:48;2.70;;;2.50;;
71759;SDS011;59919;48.112;16.280;2023-05-07T09:51:30;3.22;;;2.65;;
71759;SDS011;59919;48.112;16.280;2023-05-07T09:54:08;3.20;;;2.50;;
71759;SDS011;59919;48.112;16.280;2023-05-07T09:56:42;3.33;;;2.67;;
71759;SDS011;59919;48.112;16.280;2023-05-07T09:59:17;3.75;;;3.05;;
71759;SDS011;59919;48.112;16.280;2023-05-07T10:01:51;3.55;;;3.13;;
71759;SDS011;59919;48.112;16.280;2023-05-07T10:04:27;2.83;;;2.53;;
71759;SDS011;59919;48.112;16.280;2023-05-07T10:06:59;5.22;;;2.65;;
71759;SDS011;59919;48.112;16.280;2023-05-07T10:09:31;3.80;;;3.15;;
71759;SDS011;59919;48.112;16.280;2023-05-07T10:12:08;3.88;;;2.85;;
71759;SDS011;59919;48.112;16.280;2023-05-07T10:14:40;3.22;;;2.65;;
71759;SDS011;59919;48.112;16.280;2023-05-07T10:17:11;3.38;;;2.95;;
71759;SDS011;59919;48.112;16.280;2023-05-07T10:19:44;2.65;;;2.45;;
71759;SDS011;59919;48.112;16.280;2023-05-07T10:22:18;3.35;;;3.03;;
71759;SDS011;59919;48.112;16.280;2023-05-07T10:24:52;3.63;;;2.90;;
71759;SDS011;59919;48.112;16.280;2023-05-07T10:27:29;3.00;;;2.70;;
71759;SDS011;59919;48.112;16.280;2023-05-07T10:32:51;4.72;;;2.60;;
71759;SDS011;59919;48.112;16.280;2023-05-07T10:35:29;3.08;;;2.78;;
71759;SDS011;59919;48.112;16.280;2023-05-07T10:38:04;3.05;;;2.80;;
71759;SDS011;59919;48.112;16.280;2023-05-07T10:40:35;3.45;;;2.85;;
71759;SDS011;59919;48.112;16.280;2023-05-07T10:43:09;3.33;;;3.03;;
71759;SDS011;59919;48.112;16.280;2023-05-07T10:45:40;3.22;;;2.88;;
71759;SDS011;59919;48.112;16.280;2023-05-07T10:48:14;3.78;;;2.85;;
71759;SDS011;59919;48.112;16.280;2023-05-07T10:50:46;3.60;;;2.85;;
71759;SDS011;59919;48.112;16.280;2023-05-07T10:56:08;2.70;;;2.40;;
71759;SDS011;59919;48.112;16.280;2023-05-07T11:01:55;3.42;;;3.13;;
71759;SDS011;59919;48.112;16.280;2023-05-07T11:04:36;3.05;;;2.75;;
71759;SDS011;59919;48.112;16.280;2023-05-07T11:07:14;3.67;;;2.80;;
71759;SDS011;59919;48.112;16.280;2023-05-07T11:09:59;2.97;;;2.67;;
71759;SDS011;59919;48.112;16.280;2023-05-07T11:15:09;3.92;;;3.00;;
71759;SDS011;59919;48.112;16.280;2023-05-07T11:26:08;3.22;;;2.38;;
71759;SDS011;59919;48.112;16.280;2023-05-07T11:28:41;3.35;;;3.00;;
71759;SDS011;59919;48.112;16.280;2023-05-07T11:31:14;3.17;;;2.70;;
71759;SDS011;59919;48.112;16.280;2023-05-07T11:33:53;3.00;;;2.70;;
71759;SDS011;59919;48.112;16.280;2023-05-07T11:36:25;3.20;;;2.90;;
71759;SDS011;59919;48.112;16.280;2023-05-07T11:39:03;4.40;;;2.60;;
71759;SDS011;59919;48.112;16.280;2023-05-07T11:41:35;4.65;;;2.85;;
71759;SDS011;59919;48.112;16.280;2023-05-07T11:44:07;4.15;;;2.30;;
71759;SDS011;59919;48.112;16.280;2023-05-07T11:46:42;3.33;;;2.88;;
71759;SDS011;59919;48.112;16.280;2023-05-07T11:49:14;4.72;;;2.90;;
71759;SDS011;59919;48.112;16.280;2023-05-07T11:51:46;3.20;;;2.35;;
71759;SDS011;59919;48.112;16.280;2023-05-07T11:54:20;3.80;;;2.83;;
71759;SDS011;59919;48.112;16.280;2023-05-07T11:56:51;4.65;;;3.00;;
71759;SDS011;59919;48.112;16.280;2023-05-07T11:59:22;4.65;;;2.97;;
71759;SDS011;59919;48.112;16.280;2023-05-07T12:01:57;4.00;;;2.40;;
71759;SDS011;59919;48.112;16.280;2023-05-07T12:04:30;3.05;;;2.67;;
71759;SDS011;59919;48.112;16.280;2023-05-07T12:07:01;4.07;;;2.92;;
71759;SDS011;59919;48.112;16.280;2023-05-07T12:09:32;4.18;;;3.17;;
71759;SDS011;59919;48.112;16.280;2023-05-07T12:12:04;3.38;;;2.80;;
71759;SDS011;59919;48.112;16.280;2023-05-07T12:14:39;3.80;;;2.72;;
71759;SDS011;59919;48.112;16.280;2023-05-07T12:17:14;2.97;;;2.67;;
71759;SDS011;59919;48.112;16.280;2023-05-07T12:19:45;3.28;;;2.45;;
71759;SDS011;59919;48.112;16.280;2023-05-07T12:22:23;3.47;;;2.80;;
71759;SDS011;59919;48.112;16.280;2023-05-07T12:24:57;4.85;;;2.80;;
71759;SDS011;59919;48.112;16.280;2023-05-07T12:27:31;3.35;;;2.90;;
71759;SDS011;59919;48.112;16.280;2023-05-07T12:30:02;2.85;;;2.50;;
71759;SDS011;59919;48.112;16.280;2023-05-07T12:32:34;4.03;;;2.70;;
71759;SDS011;59919;48.112;16.280;2023-05-07T12:35:07;3.35;;;2.78;;
71759;SDS011;59919;48.112;16.280;2023-05-07T12:37:44;4.35;;;2.70;;
71759;SDS011;59919;48.112;16.280;2023-05-07T12:40:41;3.08;;;2.42;;
71759;SDS011;59919;48.112;16.280;2023-05-07T12:43:20;4.05;;;2.70;;
71759;SDS011;59919;48.112;16.280;2023-05-07T12:45:56;3.65;;;2.72;;
71759;SDS011;59919;48.112;16.280;2023-05-07T12:48:30;4.03;;;2.55;;
71759;SDS011;59919;48.112;16.280;2023-05-07T12:51:06;3.05;;;2.33;;
71759;SDS011;59919;48.112;16.280;2023-05-07T12:53:42;3.22;;;2.67;;
71759;SDS011;59919;48.112;16.280;2023-05-07T12:56:15;3.10;;;2.70;;
71759;SDS011;59919;48.112;16.280;2023-05-07T12:58:52;3.17;;;2.58;;
71759;SDS011;59919;48.112;16.280;2023-05-07T13:01:28;3.45;;;2.72;;
71759;SDS011;59919;48.112;16.280;2023-05-07T13:04:05;3.42;;;2.42;;
71759;SDS011;59919;48.112;16.280;2023-05-07T13:06:38;3.15;;;2.83;;
71759;SDS011;59919;48.112;16.280;2023-05-07T13:09:09;4.60;;;2.92;;
71759;SDS011;59919;48.112;16.280;2023-05-07T13:11:40;3.13;;;2.47;;
71759;SDS011;59919;48.112;16.280;2023-05-07T13:14:11;3.63;;;2.65;;
71759;SDS011;59919;48.112;16.280;2023-05-07T13:16:43;2.65;;;2.38;;
71759;SDS011;59919;48.112;16.280;2023-05-07T13:19:14;3.50;;;2.50;;
71759;SDS011;59919;48.112;16.280;2023-05-07T13:21:45;3.22;;;2.92;;
71759;SDS011;59919;48.112;16.280;2023-05-07T13:24:20;3.58;;;2.60;;
71759;SDS011;59919;48.112;16.280;2023-05-07T13:26:51;3.13;;;2.58;;
71759;SDS011;59919;48.112;16.280;2023-05-07T13:29:25;3.72;;;2.42;;
71759;SDS011;59919;48.112;16.280;2023-05-07T13:32:00;3.75;;;2.90;;
71759;SDS011;59919;48.112;16.280;2023-05-07T13:34:31;4.10;;;2.35;;
71759;SDS011;59919;48.112;16.280;2023-05-07T13:37:06;3.58;;;2.60;;
71759;SDS011;59919;48.112;16.280;2023-05-07T13:39:38;4.10;;;2.53;;
71759;SDS011;59919;48.112;16.280;2023-05-07T13:42:11;3.47;;;2.70;;
71759;SDS011;59919;48.112;16.280;2023-05-07T13:44:43;4.85;;;2.33;;
71759;SDS011;59919;48.112;16.280;2023-05-07T13:47:17;3.60;;;2.28;;
71759;SDS011;59919;48.112;16.280;2023-05-07T13:49:52;2.95;;;2.42;;
71759;SDS011;59919;48.112;16.280;2023-05-07T13:52:23;3.58;;;2.15;;
71759;SDS011;59919;48.112;16.280;2023-05-07T13:54:54;3.45;;;2.50;;
71759;SDS011;59919;48.112;16.280;2023-05-07T13:57:29;6.57;;;2.55;;
71759;SDS011;59919;48.112;16.280;2023-05-07T14:00:03;3.00;;;2.38;;
71759;SDS011;59919;48.112;16.280;2023-05-07T14:02:35;4.55;;;2.80;;
71759;SDS011;59919;48.112;16.280;2023-05-07T14:05:06;4.00;;;2.38;;
71759;SDS011;59919;48.112;16.280;2023-05-07T14:07:39;2.90;;;2.50;;
71759;SDS011;59919;48.112;16.280;2023-05-07T14:10:10;3.72;;;2.53;;
71759;SDS011;59919;48.112;16.280;2023-05-07T14:12:42;3.08;;;2.17;;
71759;SDS011;59919;48.112;16.280;2023-05-07T14:15:18;3.78;;;2.25;;
71759;SDS011;59919;48.112;16.280;2023-05-07T14:17:49;2.35;;;2.13;;
71759;SDS011;59919;48.112;16.280;2023-05-07T14:20:20;2.40;;;2.20;;
71759;SDS011;59919;48.112;16.280;2023-05-07T14:22:51;3.67;;;2.20;;
71759;SDS011;59919;48.112;16.280;2023-05-07T14:25:22;3.17;;;2.15;;
71759;SDS011;59919;48.112;16.280;2023-05-07T14:27:54;3.83;;;2.40;;
71759;SDS011;59919;48.112;16.280;2023-05-07T14:30:25;4.03;;;2.20;;
71759;SDS011;59919;48.112;16.280;2023-05-07T14:32:56;3.42;;;2.72;;
71759;SDS011;59919;48.112;16.280;2023-05-07T14:35:30;3.92;;;2.22;;
71759;SDS011;59919;48.112;16.280;2023-05-07T14:38:01;3.28;;;2.38;;
71759;SDS011;59919;48.112;16.280;2023-05-07T14:40:32;2.80;;;2.50;;
71759;SDS011;59919;48.112;16.280;2023-05-07T14:43:03;3.38;;;2.10;;
71759;SDS011;59919;48.112;16.280;2023-05-07T14:45:34;4.10;;;2.22;;
71759;SDS011;59919;48.112;16.280;2023-05-07T14:48:05;4.03;;;2.22;;
71759;SDS011;59919;48.112;16.280;2023-05-07T14:50:39;2.67;;;2.30;;
71759;SDS011;59919;48.112;16.280;2023-05-07T14:53:11;3.40;;;2.25;;
71759;SDS011;59919;48.112;16.280;2023-05-07T14:55:45;2.45;;;2.25;;
71759;SDS011;59919;48.112;16.280;2023-05-07T14:58:18;3.22;;;2.03;;
71759;SDS011;59919;48.112;16.280;2023-05-07T15:00:49;4.05;;;2.25;;
71759;SDS011;59919;48.112;16.280;2023-05-07T15:03:23;2.70;;;2.20;;
71759;SDS011;59919;48.112;16.280;2023-05-07T15:06:08;3.35;;;2.13;;
71759;SDS011;59919;48.112;16.280;2023-05-07T15:08:41;2.28;;;2.08;;
71759;SDS011;59919;48.112;16.280;2023-05-07T15:11:14;2.20;;;2.00;;
71759;SDS011;59919;48.112;16.280;2023-05-07T15:13:45;2.63;;;2.00;;
71759;SDS011;59919;48.112;16.280;2023-05-07T15:16:16;2.72;;;2.40;;
71759;SDS011;59919;48.112;16.280;2023-05-07T15:18:48;2.60;;;2.00;;
71759;SDS011;59919;48.112;16.280;2023-05-07T15:21:19;2.00;;;1.80;;
71759;SDS011;59919;48.112;16.280;2023-05-07T15:23:53;2.25;;;2.00;;
71759;SDS011;59919;48.112;16.280;2023-05-07T15:26:24;3.05;;;2.15;;
71759;SDS011;59919;48.112;16.280;2023-05-07T15:28:57;3.03;;;2.30;;
71759;SDS011;59919;48.112;16.280;2023-05-07T15:31:28;2.40;;;2.20;;
71759;SDS011;59919;48.112;16.280;2023-05-07T15:34:02;2.47;;;1.98;;